sensor_id;sensor_type;location;lat;lon;timestamp;P1;durP1;ratioP1;P2;durP2;ratioP2
19057;SDS011;9662;53.612;9.914;2022-10-16T00:00:43;4.97;;;4.72;;
19057;SDS011;9662;53.612;9.914;2022-10-16T00:03:10;6.05;;;5.55;;
19057;SDS011;9662;53.612;9.914;2022-10-16T00:05:38;9.90;;;5.17;;
19057;SDS011;9662;53.612;9.914;2022-10-16T00:08:07;5.03;;;4.53;;
19057;SDS011;9662;53.612;9.914;2022-10-16T00:10:34;5.30;;;4.90;;
19057;SDS011;9662;53.612;9.914;2022-10-16T00:13:01;5.43;;;4.88;;
19057;SDS011;9662;53.612;9.914;2022-10-16T00:15:28;4.57;;;4.27;;
19057;SDS011;9662;53.612;9.914;2022-10-16T00:17:55;7.43;;;4.47;;
19057;SDS011;9662;53.612;9.914;2022-10-16T00:20:22;6.88;;;3.92;;
19057;SDS011;9662;53.612;9.914;2022-10-16T00:22:48;4.40;;;4.18;;
19057;SDS011;9662;53.612;9.914;2022-10-16T00:25:16;3.77;;;3.57;;
19057;SDS011;9662;53.612;9.914;2022-10-16T00:27:43;5.20;;;3.67;;
19057;SDS011;9662;53.612;9.914;2022-10-16T00:30:10;3.72;;;3.53;;
19057;SDS011;9662;53.612;9.914;2022-10-16T00:32:37;6.18;;;3.85;;
19057;SDS011;9662;53.612;9.914;2022-10-16T00:35:04;3.80;;;3.53;;
19057;SDS011;9662;53.612;9.914;2022-10-16T00:37:31;3.83;;;3.65;;
19057;SDS011;9662;53.612;9.914;2022-10-16T00:39:58;4.20;;;3.45;;
19057;SDS011;9662;53.612;9.914;2022-10-16T00:42:26;3.17;;;2.97;;
19057;SDS011;9662;53.612;9.914;2022-10-16T00:44:53;2.65;;;2.55;;
19057;SDS011;9662;53.612;9.914;2022-10-16T00:47:22;3.37;;;2.47;;
19057;SDS011;9662;53.612;9.914;2022-10-16T00:49:55;2.83;;;2.72;;
19057;SDS011;9662;53.612;9.914;2022-10-16T00:52:25;4.95;;;2.40;;
19057;SDS011;9662;53.612;9.914;2022-10-16T00:54:52;3.20;;;2.50;;
19057;SDS011;9662;53.612;9.914;2022-10-16T00:57:19;2.30;;;2.03;;
19057;SDS011;9662;53.612;9.914;2022-10-16T00:59:47;2.20;;;2.08;;
19057;SDS011;9662;53.612;9.914;2022-10-16T01:02:15;3.72;;;2.35;;
19057;SDS011;9662;53.612;9.914;2022-10-16T01:04:43;2.75;;;2.08;;
19057;SDS011;9662;53.612;9.914;2022-10-16T01:07:13;2.20;;;2.10;;
19057;SDS011;9662;53.612;9.914;2022-10-16T01:09:51;5.07;;;2.63;;
19057;SDS011;9662;53.612;9.914;2022-10-16T01:12:28;6.30;;;2.35;;
19057;SDS011;9662;53.612;9.914;2022-10-16T01:15:06;3.70;;;2.30;;
19057;SDS011;9662;53.612;9.914;2022-10-16T01:17:38;2.58;;;2.05;;
19057;SDS011;9662;53.612;9.914;2022-10-16T01:20:12;1.80;;;1.70;;
19057;SDS011;9662;53.612;9.914;2022-10-16T01:22:49;2.63;;;2.00;;
19057;SDS011;9662;53.612;9.914;2022-10-16T01:25:35;2.10;;;2.00;;
19057;SDS011;9662;53.612;9.914;2022-10-16T01:28:13;2.27;;;2.10;;
19057;SDS011;9662;53.612;9.914;2022-10-16T01:30:41;1.90;;;1.80;;
19057;SDS011;9662;53.612;9.914;2022-10-16T01:33:13;1.90;;;1.90;;
19057;SDS011;9662;53.612;9.914;2022-10-16T01:35:45;2.50;;;1.77;;
19057;SDS011;9662;53.612;9.914;2022-10-16T01:38:17;2.00;;;1.90;;
19057;SDS011;9662;53.612;9.914;2022-10-16T01:40:49;6.23;;;1.80;;
19057;SDS011;9662;53.612;9.914;2022-10-16T01:43:23;1.77;;;1.73;;
19057;SDS011;9662;53.612;9.914;2022-10-16T01:45:52;2.47;;;1.77;;
19057;SDS011;9662;53.612;9.914;2022-10-16T01:48:20;2.53;;;2.10;;
19057;SDS011;9662;53.612;9.914;2022-10-16T01:50:50;3.53;;;2.08;;
19057;SDS011;9662;53.612;9.914;2022-10-16T01:53:21;1.65;;;1.50;;
19057;SDS011;9662;53.612;9.914;2022-10-16T01:55:49;1.55;;;1.55;;
19057;SDS011;9662;53.612;9.914;2022-10-16T01:58:20;1.65;;;1.55;;
19057;SDS011;9662;53.612;9.914;2022-10-16T02:00:51;2.20;;;1.88;;
19057;SDS011;9662;53.612;9.914;2022-10-16T02:03:19;1.95;;;1.85;;
19057;SDS011;9662;53.612;9.914;2022-10-16T02:05:47;1.95;;;1.85;;
19057;SDS011;9662;53.612;9.914;2022-10-16T02:08:17;1.88;;;1.77;;
19057;SDS011;9662;53.612;9.914;2022-10-16T02:10:44;2.08;;;1.80;;
19057;SDS011;9662;53.612;9.914;2022-10-16T02:13:11;1.60;;;1.60;;
19057;SDS011;9662;53.612;9.914;2022-10-16T02:15:44;2.67;;;1.90;;
19057;SDS011;9662;53.612;9.914;2022-10-16T02:18:11;1.63;;;1.63;;
19057;SDS011;9662;53.612;9.914;2022-10-16T02:20:40;1.70;;;1.50;;
19057;SDS011;9662;53.612;9.914;2022-10-16T02:23:16;1.58;;;1.48;;
19057;SDS011;9662;53.612;9.914;2022-10-16T02:25:47;3.40;;;1.60;;
19057;SDS011;9662;53.612;9.914;2022-10-16T02:28:16;2.72;;;1.55;;
19057;SDS011;9662;53.612;9.914;2022-10-16T02:30:49;2.05;;;1.90;;
19057;SDS011;9662;53.612;9.914;2022-10-16T02:33:18;3.00;;;1.63;;
19057;SDS011;9662;53.612;9.914;2022-10-16T02:35:47;2.40;;;1.58;;
19057;SDS011;9662;53.612;9.914;2022-10-16T02:38:16;1.70;;;1.60;;
19057;SDS011;9662;53.612;9.914;2022-10-16T02:40:44;1.73;;;1.63;;
19057;SDS011;9662;53.612;9.914;2022-10-16T02:43:11;1.90;;;1.33;;
19057;SDS011;9662;53.612;9.914;2022-10-16T02:45:39;1.90;;;1.58;;
19057;SDS011;9662;53.612;9.914;2022-10-16T02:48:07;2.50;;;1.70;;
19057;SDS011;9662;53.612;9.914;2022-10-16T02:50:34;2.03;;;1.53;;
19057;SDS011;9662;53.612;9.914;2022-10-16T02:53:00;2.40;;;1.38;;
19057;SDS011;9662;53.612;9.914;2022-10-16T02:55:27;3.38;;;1.70;;
19057;SDS011;9662;53.612;9.914;2022-10-16T02:57:54;1.50;;;1.50;;
19057;SDS011;9662;53.612;9.914;2022-10-16T03:00:21;1.98;;;1.67;;
19057;SDS011;9662;53.612;9.914;2022-10-16T03:02:48;1.80;;;1.70;;
19057;SDS011;9662;53.612;9.914;2022-10-16T03:05:16;5.18;;;1.30;;
19057;SDS011;9662;53.612;9.914;2022-10-16T03:07:43;2.60;;;1.33;;
19057;SDS011;9662;53.612;9.914;2022-10-16T03:10:09;1.38;;;1.38;;
19057;SDS011;9662;53.612;9.914;2022-10-16T03:12:36;1.20;;;1.17;;
19057;SDS011;9662;53.612;9.914;2022-10-16T03:15:03;1.65;;;1.65;;
19057;SDS011;9662;53.612;9.914;2022-10-16T03:17:32;8.10;;;1.77;;
19057;SDS011;9662;53.612;9.914;2022-10-16T03:19:58;2.75;;;1.63;;
19057;SDS011;9662;53.612;9.914;2022-10-16T03:22:26;4.82;;;1.90;;
19057;SDS011;9662;53.612;9.914;2022-10-16T03:24:53;2.90;;;1.38;;
19057;SDS011;9662;53.612;9.914;2022-10-16T03:27:20;1.30;;;1.20;;
19057;SDS011;9662;53.612;9.914;2022-10-16T03:29:47;4.63;;;1.45;;
19057;SDS011;9662;53.612;9.914;2022-10-16T03:32:13;1.50;;;1.40;;
19057;SDS011;9662;53.612;9.914;2022-10-16T03:34:40;5.45;;;1.45;;
19057;SDS011;9662;53.612;9.914;2022-10-16T03:37:07;4.15;;;1.52;;
19057;SDS011;9662;53.612;9.914;2022-10-16T03:39:35;1.20;;;1.20;;
19057;SDS011;9662;53.612;9.914;2022-10-16T03:42:01;4.25;;;1.40;;
19057;SDS011;9662;53.612;9.914;2022-10-16T03:44:28;1.58;;;1.15;;
19057;SDS011;9662;53.612;9.914;2022-10-16T03:46:55;2.45;;;1.40;;
19057;SDS011;9662;53.612;9.914;2022-10-16T03:49:21;2.10;;;1.50;;
19057;SDS011;9662;53.612;9.914;2022-10-16T03:51:48;1.60;;;1.50;;
19057;SDS011;9662;53.612;9.914;2022-10-16T03:54:15;2.00;;;1.58;;
19057;SDS011;9662;53.612;9.914;2022-10-16T03:56:43;1.57;;;1.37;;
19057;SDS011;9662;53.612;9.914;2022-10-16T03:59:10;4.07;;;1.83;;
19057;SDS011;9662;53.612;9.914;2022-10-16T04:01:36;1.60;;;1.48;;
19057;SDS011;9662;53.612;9.914;2022-10-16T04:04:03;2.57;;;1.30;;
19057;SDS011;9662;53.612;9.914;2022-10-16T04:06:30;6.18;;;1.55;;
19057;SDS011;9662;53.612;9.914;2022-10-16T04:08:57;2.50;;;1.50;;
19057;SDS011;9662;53.612;9.914;2022-10-16T04:11:23;2.00;;;1.80;;
19057;SDS011;9662;53.612;9.914;2022-10-16T04:13:51;1.52;;;1.42;;
19057;SDS011;9662;53.612;9.914;2022-10-16T04:16:18;2.30;;;1.48;;
19057;SDS011;9662;53.612;9.914;2022-10-16T04:18:45;1.73;;;1.50;;
19057;SDS011;9662;53.612;9.914;2022-10-16T04:21:11;2.70;;;1.60;;
19057;SDS011;9662;53.612;9.914;2022-10-16T04:23:38;3.00;;;1.50;;
19057;SDS011;9662;53.612;9.914;2022-10-16T04:26:05;1.67;;;1.58;;
19057;SDS011;9662;53.612;9.914;2022-10-16T04:28:32;1.73;;;1.67;;
19057;SDS011;9662;53.612;9.914;2022-10-16T04:30:59;1.42;;;1.42;;
19057;SDS011;9662;53.612;9.914;2022-10-16T04:33:29;4.20;;;1.63;;
19057;SDS011;9662;53.612;9.914;2022-10-16T04:35:56;1.50;;;1.45;;
19057;SDS011;9662;53.612;9.914;2022-10-16T04:38:23;1.90;;;1.42;;
19057;SDS011;9662;53.612;9.914;2022-10-16T04:40:49;4.10;;;1.50;;
19057;SDS011;9662;53.612;9.914;2022-10-16T04:43:16;1.50;;;1.40;;
19057;SDS011;9662;53.612;9.914;2022-10-16T04:45:43;7.80;;;1.50;;
19057;SDS011;9662;53.612;9.914;2022-10-16T04:48:11;4.40;;;1.35;;
19057;SDS011;9662;53.612;9.914;2022-10-16T04:50:37;2.10;;;1.42;;
19057;SDS011;9662;53.612;9.914;2022-10-16T04:53:04;4.88;;;1.48;;
19057;SDS011;9662;53.612;9.914;2022-10-16T04:55:32;2.75;;;1.30;;
19057;SDS011;9662;53.612;9.914;2022-10-16T04:57:58;1.40;;;1.40;;
19057;SDS011;9662;53.612;9.914;2022-10-16T05:00:25;2.55;;;1.77;;
19057;SDS011;9662;53.612;9.914;2022-10-16T05:02:52;4.13;;;1.77;;
19057;SDS011;9662;53.612;9.914;2022-10-16T05:05:20;4.18;;;1.67;;
19057;SDS011;9662;53.612;9.914;2022-10-16T05:07:47;1.85;;;1.58;;
19057;SDS011;9662;53.612;9.914;2022-10-16T05:10:14;2.30;;;1.90;;
19057;SDS011;9662;53.612;9.914;2022-10-16T05:12:41;1.90;;;1.80;;
19057;SDS011;9662;53.612;9.914;2022-10-16T05:15:08;2.40;;;1.65;;
19057;SDS011;9662;53.612;9.914;2022-10-16T05:17:35;2.30;;;1.58;;
19057;SDS011;9662;53.612;9.914;2022-10-16T05:20:02;4.45;;;2.03;;
19057;SDS011;9662;53.612;9.914;2022-10-16T05:22:31;2.35;;;2.17;;
19057;SDS011;9662;53.612;9.914;2022-10-16T05:24:57;2.42;;;1.80;;
19057;SDS011;9662;53.612;9.914;2022-10-16T05:27:24;3.63;;;2.20;;
19057;SDS011;9662;53.612;9.914;2022-10-16T05:29:51;5.80;;;2.10;;
19057;SDS011;9662;53.612;9.914;2022-10-16T05:32:18;6.05;;;2.35;;
19057;SDS011;9662;53.612;9.914;2022-10-16T05:34:45;12.10;;;2.10;;
19057;SDS011;9662;53.612;9.914;2022-10-16T05:37:12;6.40;;;2.20;;
19057;SDS011;9662;53.612;9.914;2022-10-16T05:39:40;2.17;;;2.00;;
19057;SDS011;9662;53.612;9.914;2022-10-16T05:42:07;4.00;;;2.17;;
19057;SDS011;9662;53.612;9.914;2022-10-16T05:44:33;2.80;;;2.50;;
19057;SDS011;9662;53.612;9.914;2022-10-16T05:47:00;2.97;;;2.65;;
19057;SDS011;9662;53.612;9.914;2022-10-16T05:49:27;3.50;;;2.30;;
19057;SDS011;9662;53.612;9.914;2022-10-16T05:51:53;2.70;;;1.80;;
19057;SDS011;9662;53.612;9.914;2022-10-16T05:54:20;3.40;;;2.63;;
19057;SDS011;9662;53.612;9.914;2022-10-16T05:56:48;7.00;;;2.42;;
19057;SDS011;9662;53.612;9.914;2022-10-16T05:59:15;3.00;;;2.50;;
19057;SDS011;9662;53.612;9.914;2022-10-16T06:01:42;4.10;;;2.10;;
19057;SDS011;9662;53.612;9.914;2022-10-16T06:04:09;3.70;;;2.00;;
19057;SDS011;9662;53.612;9.914;2022-10-16T06:06:35;1.97;;;1.87;;
19057;SDS011;9662;53.612;9.914;2022-10-16T06:09:02;2.15;;;2.03;;
19057;SDS011;9662;53.612;9.914;2022-10-16T06:11:31;3.60;;;2.30;;
19057;SDS011;9662;53.612;9.914;2022-10-16T06:14:00;2.55;;;2.10;;
19057;SDS011;9662;53.612;9.914;2022-10-16T06:16:31;2.47;;;2.27;;
19057;SDS011;9662;53.612;9.914;2022-10-16T06:18:59;2.10;;;1.90;;
19057;SDS011;9662;53.612;9.914;2022-10-16T06:21:26;1.60;;;1.55;;
19057;SDS011;9662;53.612;9.914;2022-10-16T06:23:55;2.67;;;1.90;;
19057;SDS011;9662;53.612;9.914;2022-10-16T06:26:23;2.72;;;2.15;;
19057;SDS011;9662;53.612;9.914;2022-10-16T06:28:51;4.25;;;2.00;;
19057;SDS011;9662;53.612;9.914;2022-10-16T06:31:21;3.75;;;2.05;;
19057;SDS011;9662;53.612;9.914;2022-10-16T06:33:52;2.40;;;2.30;;
19057;SDS011;9662;53.612;9.914;2022-10-16T06:36:19;2.65;;;1.90;;
19057;SDS011;9662;53.612;9.914;2022-10-16T06:38:46;4.60;;;2.15;;
19057;SDS011;9662;53.612;9.914;2022-10-16T06:41:14;2.70;;;1.90;;
19057;SDS011;9662;53.612;9.914;2022-10-16T06:43:42;3.83;;;1.90;;
19057;SDS011;9662;53.612;9.914;2022-10-16T06:46:10;6.20;;;2.72;;
19057;SDS011;9662;53.612;9.914;2022-10-16T06:48:40;2.50;;;2.30;;
19057;SDS011;9662;53.612;9.914;2022-10-16T06:51:08;2.63;;;1.83;;
19057;SDS011;9662;53.612;9.914;2022-10-16T06:53:37;7.20;;;2.45;;
19057;SDS011;9662;53.612;9.914;2022-10-16T06:56:07;3.10;;;1.98;;
19057;SDS011;9662;53.612;9.914;2022-10-16T06:58:35;2.40;;;1.77;;
19057;SDS011;9662;53.612;9.914;2022-10-16T07:01:02;4.03;;;2.20;;
19057;SDS011;9662;53.612;9.914;2022-10-16T07:03:29;2.20;;;2.00;;
19057;SDS011;9662;53.612;9.914;2022-10-16T07:06:00;2.63;;;2.00;;
19057;SDS011;9662;53.612;9.914;2022-10-16T07:08:28;2.05;;;1.88;;
19057;SDS011;9662;53.612;9.914;2022-10-16T07:10:59;3.30;;;2.40;;
19057;SDS011;9662;53.612;9.914;2022-10-16T07:13:26;6.07;;;2.60;;
19057;SDS011;9662;53.612;9.914;2022-10-16T07:15:53;2.50;;;2.30;;
19057;SDS011;9662;53.612;9.914;2022-10-16T07:18:20;2.20;;;2.10;;
19057;SDS011;9662;53.612;9.914;2022-10-16T07:20:51;5.75;;;2.67;;
19057;SDS011;9662;53.612;9.914;2022-10-16T07:23:19;2.53;;;2.33;;
19057;SDS011;9662;53.612;9.914;2022-10-16T07:25:46;3.40;;;2.30;;
19057;SDS011;9662;53.612;9.914;2022-10-16T07:28:19;2.38;;;2.25;;
19057;SDS011;9662;53.612;9.914;2022-10-16T07:30:46;3.58;;;2.60;;
19057;SDS011;9662;53.612;9.914;2022-10-16T07:33:13;5.50;;;2.70;;
19057;SDS011;9662;53.612;9.914;2022-10-16T07:35:46;3.13;;;2.67;;
19057;SDS011;9662;53.612;9.914;2022-10-16T07:38:14;4.37;;;2.47;;
19057;SDS011;9662;53.612;9.914;2022-10-16T07:40:42;2.28;;;2.10;;
19057;SDS011;9662;53.612;9.914;2022-10-16T07:43:08;3.65;;;2.05;;
19057;SDS011;9662;53.612;9.914;2022-10-16T07:45:35;3.30;;;2.60;;
19057;SDS011;9662;53.612;9.914;2022-10-16T07:48:02;2.63;;;2.53;;
19057;SDS011;9662;53.612;9.914;2022-10-16T07:50:29;2.55;;;2.40;;
19057;SDS011;9662;53.612;9.914;2022-10-16T07:52:55;2.80;;;2.25;;
19057;SDS011;9662;53.612;9.914;2022-10-16T07:55:22;2.92;;;2.72;;
19057;SDS011;9662;53.612;9.914;2022-10-16T07:57:50;2.45;;;2.33;;
19057;SDS011;9662;53.612;9.914;2022-10-16T08:00:17;2.70;;;2.60;;
19057;SDS011;9662;53.612;9.914;2022-10-16T08:02:44;3.17;;;2.97;;
19057;SDS011;9662;53.612;9.914;2022-10-16T08:05:10;2.53;;;2.42;;
19057;SDS011;9662;53.612;9.914;2022-10-16T08:07:37;2.80;;;2.50;;
19057;SDS011;9662;53.612;9.914;2022-10-16T08:10:04;3.97;;;2.25;;
19057;SDS011;9662;53.612;9.914;2022-10-16T08:12:32;3.20;;;2.40;;
19057;SDS011;9662;53.612;9.914;2022-10-16T08:15:01;4.00;;;3.03;;
19057;SDS011;9662;53.612;9.914;2022-10-16T08:17:28;6.85;;;2.78;;
19057;SDS011;9662;53.612;9.914;2022-10-16T08:19:55;3.40;;;2.38;;
19057;SDS011;9662;53.612;9.914;2022-10-16T08:22:21;3.55;;;2.85;;
19057;SDS011;9662;53.612;9.914;2022-10-16T08:24:48;2.47;;;2.28;;
19057;SDS011;9662;53.612;9.914;2022-10-16T08:27:16;2.95;;;2.80;;
19057;SDS011;9662;53.612;9.914;2022-10-16T08:29:43;2.80;;;2.60;;
19057;SDS011;9662;53.612;9.914;2022-10-16T08:32:11;3.97;;;2.70;;
19057;SDS011;9662;53.612;9.914;2022-10-16T08:34:38;3.75;;;2.42;;
19057;SDS011;9662;53.612;9.914;2022-10-16T08:37:05;4.23;;;2.40;;
19057;SDS011;9662;53.612;9.914;2022-10-16T08:39:33;2.70;;;2.50;;
19057;SDS011;9662;53.612;9.914;2022-10-16T08:45:02;2.92;;;2.72;;
19057;SDS011;9662;53.612;9.914;2022-10-16T08:47:51;2.40;;;2.20;;
19057;SDS011;9662;53.612;9.914;2022-10-16T08:50:27;2.50;;;2.40;;
19057;SDS011;9662;53.612;9.914;2022-10-16T08:52:56;2.08;;;1.98;;
19057;SDS011;9662;53.612;9.914;2022-10-16T08:55:31;2.35;;;2.20;;
19057;SDS011;9662;53.612;9.914;2022-10-16T08:58:07;3.75;;;2.15;;
19057;SDS011;9662;53.612;9.914;2022-10-16T09:00:38;2.88;;;2.08;;
19057;SDS011;9662;53.612;9.914;2022-10-16T09:03:11;2.30;;;2.10;;
19057;SDS011;9662;53.612;9.914;2022-10-16T09:05:52;2.17;;;2.08;;
19057;SDS011;9662;53.612;9.914;2022-10-16T09:08:32;5.30;;;1.92;;
19057;SDS011;9662;53.612;9.914;2022-10-16T09:11:10;1.88;;;1.77;;
19057;SDS011;9662;53.612;9.914;2022-10-16T09:13:43;8.65;;;2.20;;
19057;SDS011;9662;53.612;9.914;2022-10-16T09:16:18;2.35;;;1.85;;
19057;SDS011;9662;53.612;9.914;2022-10-16T09:18:52;1.75;;;1.65;;
19057;SDS011;9662;53.612;9.914;2022-10-16T09:21:23;2.22;;;1.90;;
19057;SDS011;9662;53.612;9.914;2022-10-16T09:23:53;1.97;;;1.67;;
19057;SDS011;9662;53.612;9.914;2022-10-16T09:26:23;2.13;;;1.80;;
19057;SDS011;9662;53.612;9.914;2022-10-16T09:28:51;2.03;;;1.80;;
19057;SDS011;9662;53.612;9.914;2022-10-16T09:31:19;3.35;;;1.67;;
19057;SDS011;9662;53.612;9.914;2022-10-16T09:33:49;1.58;;;1.55;;
19057;SDS011;9662;53.612;9.914;2022-10-16T09:36:20;2.35;;;1.65;;
19057;SDS011;9662;53.612;9.914;2022-10-16T09:38:49;1.40;;;1.30;;
19057;SDS011;9662;53.612;9.914;2022-10-16T09:41:19;2.30;;;2.10;;
19057;SDS011;9662;53.612;9.914;2022-10-16T09:43:48;8.50;;;2.20;;
19057;SDS011;9662;53.612;9.914;2022-10-16T09:46:22;2.53;;;1.50;;
19057;SDS011;9662;53.612;9.914;2022-10-16T09:48:54;2.03;;;1.30;;
19057;SDS011;9662;53.612;9.914;2022-10-16T09:51:24;1.60;;;1.40;;
19057;SDS011;9662;53.612;9.914;2022-10-16T09:53:57;6.90;;;1.63;;
19057;SDS011;9662;53.612;9.914;2022-10-16T09:56:26;1.45;;;1.45;;
19057;SDS011;9662;53.612;9.914;2022-10-16T09:58:55;1.42;;;1.33;;
19057;SDS011;9662;53.612;9.914;2022-10-16T10:01:24;1.75;;;1.65;;
19057;SDS011;9662;53.612;9.914;2022-10-16T10:03:56;6.07;;;1.53;;
19057;SDS011;9662;53.612;9.914;2022-10-16T10:06:28;4.25;;;1.35;;
19057;SDS011;9662;53.612;9.914;2022-10-16T10:09:00;6.55;;;1.38;;
19057;SDS011;9662;53.612;9.914;2022-10-16T10:11:40;1.38;;;1.23;;
19057;SDS011;9662;53.612;9.914;2022-10-16T10:14:26;2.25;;;1.60;;
19057;SDS011;9662;53.612;9.914;2022-10-16T10:17:15;3.10;;;1.38;;
19057;SDS011;9662;53.612;9.914;2022-10-16T10:19:47;2.05;;;1.85;;
19057;SDS011;9662;53.612;9.914;2022-10-16T10:22:23;3.72;;;1.63;;
19057;SDS011;9662;53.612;9.914;2022-10-16T10:24:55;2.23;;;1.37;;
19057;SDS011;9662;53.612;9.914;2022-10-16T10:27:24;1.55;;;1.48;;
19057;SDS011;9662;53.612;9.914;2022-10-16T10:29:59;4.38;;;1.67;;
19057;SDS011;9662;53.612;9.914;2022-10-16T10:32:32;1.40;;;1.30;;
19057;SDS011;9662;53.612;9.914;2022-10-16T10:35:14;1.63;;;1.52;;
19057;SDS011;9662;53.612;9.914;2022-10-16T10:37:49;1.90;;;1.50;;
19057;SDS011;9662;53.612;9.914;2022-10-16T10:40:28;4.38;;;1.65;;
19057;SDS011;9662;53.612;9.914;2022-10-16T10:43:07;4.55;;;1.40;;
19057;SDS011;9662;53.612;9.914;2022-10-16T10:45:43;1.75;;;1.60;;
19057;SDS011;9662;53.612;9.914;2022-10-16T10:48:25;2.67;;;1.30;;
19057;SDS011;9662;53.612;9.914;2022-10-16T10:51:12;3.40;;;1.70;;
19057;SDS011;9662;53.612;9.914;2022-10-16T10:53:44;1.83;;;1.73;;
19057;SDS011;9662;53.612;9.914;2022-10-16T10:56:21;2.88;;;1.25;;
19057;SDS011;9662;53.612;9.914;2022-10-16T10:59:08;5.55;;;1.98;;
19057;SDS011;9662;53.612;9.914;2022-10-16T11:01:47;2.70;;;1.13;;
19057;SDS011;9662;53.612;9.914;2022-10-16T11:04:30;4.70;;;1.50;;
19057;SDS011;9662;53.612;9.914;2022-10-16T11:07:10;4.80;;;1.17;;
19057;SDS011;9662;53.612;9.914;2022-10-16T11:09:43;2.20;;;1.40;;
19057;SDS011;9662;53.612;9.914;2022-10-16T11:12:15;1.10;;;1.10;;
19057;SDS011;9662;53.612;9.914;2022-10-16T11:14:46;1.90;;;1.40;;
19057;SDS011;9662;53.612;9.914;2022-10-16T11:17:22;1.05;;;1.00;;
19057;SDS011;9662;53.612;9.914;2022-10-16T11:19:53;5.00;;;1.40;;
19057;SDS011;9662;53.612;9.914;2022-10-16T11:22:26;3.40;;;1.40;;
19057;SDS011;9662;53.612;9.914;2022-10-16T11:24:59;2.08;;;1.80;;
19057;SDS011;9662;53.612;9.914;2022-10-16T11:27:33;5.38;;;1.73;;
19057;SDS011;9662;53.612;9.914;2022-10-16T11:30:05;2.10;;;1.07;;
19057;SDS011;9662;53.612;9.914;2022-10-16T11:32:43;1.85;;;1.20;;
19057;SDS011;9662;53.612;9.914;2022-10-16T11:35:17;1.52;;;1.10;;
19057;SDS011;9662;53.612;9.914;2022-10-16T11:37:51;4.15;;;1.55;;
19057;SDS011;9662;53.612;9.914;2022-10-16T11:40:22;1.00;;;1.00;;
19057;SDS011;9662;53.612;9.914;2022-10-16T11:42:51;4.10;;;1.25;;
19057;SDS011;9662;53.612;9.914;2022-10-16T11:45:26;1.00;;;1.00;;
19057;SDS011;9662;53.612;9.914;2022-10-16T11:48:00;1.40;;;0.90;;
19057;SDS011;9662;53.612;9.914;2022-10-16T11:50:31;3.20;;;1.15;;
19057;SDS011;9662;53.612;9.914;2022-10-16T11:53:04;3.03;;;1.10;;
19057;SDS011;9662;53.612;9.914;2022-10-16T11:55:40;1.20;;;1.10;;
19057;SDS011;9662;53.612;9.914;2022-10-16T11:58:09;1.40;;;1.15;;
19057;SDS011;9662;53.612;9.914;2022-10-16T12:00:45;5.40;;;1.33;;
19057;SDS011;9662;53.612;9.914;2022-10-16T12:03:20;3.40;;;1.17;;
19057;SDS011;9662;53.612;9.914;2022-10-16T12:05:55;3.43;;;1.40;;
19057;SDS011;9662;53.612;9.914;2022-10-16T12:08:40;1.17;;;1.15;;
19057;SDS011;9662;53.612;9.914;2022-10-16T12:11:09;2.47;;;1.50;;
19057;SDS011;9662;53.612;9.914;2022-10-16T12:13:49;0.90;;;0.90;;
19057;SDS011;9662;53.612;9.914;2022-10-16T12:16:19;1.60;;;1.10;;
19057;SDS011;9662;53.612;9.914;2022-10-16T12:18:48;2.22;;;1.00;;
19057;SDS011;9662;53.612;9.914;2022-10-16T12:21:16;5.15;;;1.20;;
19057;SDS011;9662;53.612;9.914;2022-10-16T12:23:49;1.70;;;1.17;;
19057;SDS011;9662;53.612;9.914;2022-10-16T12:26:24;4.10;;;1.77;;
19057;SDS011;9662;53.612;9.914;2022-10-16T12:28:52;3.80;;;1.30;;
19057;SDS011;9662;53.612;9.914;2022-10-16T12:31:19;3.97;;;1.40;;
19057;SDS011;9662;53.612;9.914;2022-10-16T12:33:55;1.83;;;1.05;;
19057;SDS011;9662;53.612;9.914;2022-10-16T12:36:27;4.07;;;1.50;;
19057;SDS011;9662;53.612;9.914;2022-10-16T12:38:58;1.47;;;1.20;;
19057;SDS011;9662;53.612;9.914;2022-10-16T12:41:26;2.53;;;1.40;;
19057;SDS011;9662;53.612;9.914;2022-10-16T12:43:54;3.60;;;1.40;;
19057;SDS011;9662;53.612;9.914;2022-10-16T12:46:23;4.13;;;1.13;;
19057;SDS011;9662;53.612;9.914;2022-10-16T12:49:05;1.50;;;1.10;;
19057;SDS011;9662;53.612;9.914;2022-10-16T12:51:47;1.20;;;1.10;;
19057;SDS011;9662;53.612;9.914;2022-10-16T12:54:16;1.38;;;1.15;;
19057;SDS011;9662;53.612;9.914;2022-10-16T12:56:49;4.77;;;1.27;;
19057;SDS011;9662;53.612;9.914;2022-10-16T12:59:25;2.88;;;1.00;;
19057;SDS011;9662;53.612;9.914;2022-10-16T13:02:05;4.10;;;1.40;;
19057;SDS011;9662;53.612;9.914;2022-10-16T13:04:47;4.57;;;1.30;;
19057;SDS011;9662;53.612;9.914;2022-10-16T13:07:32;2.97;;;1.23;;
19057;SDS011;9662;53.612;9.914;2022-10-16T13:10:17;5.30;;;1.30;;
19057;SDS011;9662;53.612;9.914;2022-10-16T13:13:08;6.55;;;1.38;;
19057;SDS011;9662;53.612;9.914;2022-10-16T13:15:52;3.60;;;1.90;;
19057;SDS011;9662;53.612;9.914;2022-10-16T13:18:33;2.72;;;1.40;;
19057;SDS011;9662;53.612;9.914;2022-10-16T13:21:11;6.85;;;1.13;;
19057;SDS011;9662;53.612;9.914;2022-10-16T13:23:48;3.30;;;1.23;;
19057;SDS011;9662;53.612;9.914;2022-10-16T13:26:27;1.23;;;1.13;;
19057;SDS011;9662;53.612;9.914;2022-10-16T13:29:05;1.27;;;1.23;;
19057;SDS011;9662;53.612;9.914;2022-10-16T13:31:32;3.50;;;1.53;;
19057;SDS011;9662;53.612;9.914;2022-10-16T13:33:59;2.80;;;1.20;;
19057;SDS011;9662;53.612;9.914;2022-10-16T13:36:28;1.40;;;1.20;;
19057;SDS011;9662;53.612;9.914;2022-10-16T13:39:06;1.73;;;1.27;;
19057;SDS011;9662;53.612;9.914;2022-10-16T13:41:40;4.50;;;1.58;;
19057;SDS011;9662;53.612;9.914;2022-10-16T13:44:11;2.40;;;1.37;;
19057;SDS011;9662;53.612;9.914;2022-10-16T13:46:40;1.80;;;1.43;;
19057;SDS011;9662;53.612;9.914;2022-10-16T13:49:11;1.70;;;1.30;;
19057;SDS011;9662;53.612;9.914;2022-10-16T13:51:39;3.75;;;1.40;;
19057;SDS011;9662;53.612;9.914;2022-10-16T13:54:07;2.22;;;1.52;;
19057;SDS011;9662;53.612;9.914;2022-10-16T13:57:21;6.72;;;1.30;;
19057;SDS011;9662;53.612;9.914;2022-10-16T14:00:01;4.38;;;1.10;;
19057;SDS011;9662;53.612;9.914;2022-10-16T14:02:58;1.30;;;1.20;;
19057;SDS011;9662;53.612;9.914;2022-10-16T14:06:03;1.52;;;1.13;;
19057;SDS011;9662;53.612;9.914;2022-10-16T14:09:23;1.80;;;1.20;;
19057;SDS011;9662;53.612;9.914;2022-10-16T14:12:17;2.60;;;1.20;;
19057;SDS011;9662;53.612;9.914;2022-10-16T14:15:30;2.07;;;1.17;;
19057;SDS011;9662;53.612;9.914;2022-10-16T14:18:30;2.13;;;1.20;;
19057;SDS011;9662;53.612;9.914;2022-10-16T14:21:11;2.08;;;1.15;;
19057;SDS011;9662;53.612;9.914;2022-10-16T14:24:36;1.67;;;1.20;;
19057;SDS011;9662;53.612;9.914;2022-10-16T14:30:48;5.50;;;1.40;;
19057;SDS011;9662;53.612;9.914;2022-10-16T14:33:20;3.05;;;1.33;;
19057;SDS011;9662;53.612;9.914;2022-10-16T14:35:59;1.20;;;1.10;;
19057;SDS011;9662;53.612;9.914;2022-10-16T14:38:28;1.58;;;1.00;;
19057;SDS011;9662;53.612;9.914;2022-10-16T14:40:56;2.53;;;1.30;;
19057;SDS011;9662;53.612;9.914;2022-10-16T14:43:29;1.63;;;1.17;;
19057;SDS011;9662;53.612;9.914;2022-10-16T14:45:59;1.88;;;1.10;;
19057;SDS011;9662;53.612;9.914;2022-10-16T14:48:27;2.53;;;1.35;;
19057;SDS011;9662;53.612;9.914;2022-10-16T14:50:54;3.00;;;1.48;;
19057;SDS011;9662;53.612;9.914;2022-10-16T14:53:21;2.92;;;1.45;;
19057;SDS011;9662;53.612;9.914;2022-10-16T14:55:47;6.25;;;1.50;;
19057;SDS011;9662;53.612;9.914;2022-10-16T14:58:14;2.25;;;1.40;;
19057;SDS011;9662;53.612;9.914;2022-10-16T15:00:44;2.95;;;1.25;;
19057;SDS011;9662;53.612;9.914;2022-10-16T15:03:11;2.13;;;1.50;;
19057;SDS011;9662;53.612;9.914;2022-10-16T15:05:38;2.50;;;1.20;;
19057;SDS011;9662;53.612;9.914;2022-10-16T15:08:04;2.40;;;1.52;;
19057;SDS011;9662;53.612;9.914;2022-10-16T15:10:31;4.22;;;1.52;;
19057;SDS011;9662;53.612;9.914;2022-10-16T15:13:03;2.60;;;1.60;;
19057;SDS011;9662;53.612;9.914;2022-10-16T15:15:32;5.83;;;1.33;;
19057;SDS011;9662;53.612;9.914;2022-10-16T15:18:02;6.47;;;1.60;;
19057;SDS011;9662;53.612;9.914;2022-10-16T15:20:30;5.43;;;1.55;;
19057;SDS011;9662;53.612;9.914;2022-10-16T15:22:59;1.92;;;1.35;;
19057;SDS011;9662;53.612;9.914;2022-10-16T15:25:30;3.57;;;1.43;;
19057;SDS011;9662;53.612;9.914;2022-10-16T15:27:59;2.10;;;1.48;;
19057;SDS011;9662;53.612;9.914;2022-10-16T15:30:26;3.60;;;1.35;;